sensor_id;sensor_type;location;lat;lon;timestamp;temperature;humidity
19646;DHT22;9971;52.446;13.452;2023-03-14T00:04:20;13.60;99.90
19646;DHT22;9971;52.446;13.452;2023-03-14T00:09:23;13.50;99.90
19646;DHT22;9971;52.446;13.452;2023-03-14T00:14:25;13.50;99.90
19646;DHT22;9971;52.446;13.452;2023-03-14T00:19:28;13.40;99.90
19646;DHT22;9971;52.446;13.452;2023-03-14T00:24:30;13.40;99.90
19646;DHT22;9971;52.446;13.452;2023-03-14T00:29:33;13.40;99.90
19646;DHT22;9971;52.446;13.452;2023-03-14T00:34:35;13.30;99.90
19646;DHT22;9971;52.446;13.452;2023-03-14T00:39:38;13.30;99.90
19646;DHT22;9971;52.446;13.452;2023-03-14T00:44:40;13.20;99.90
19646;DHT22;9971;52.446;13.452;2023-03-14T00:49:43;13.20;99.90
19646;DHT22;9971;52.446;13.452;2023-03-14T00:54:45;13.20;99.90
19646;DHT22;9971;52.446;13.452;2023-03-14T00:59:48;13.10;99.90
19646;DHT22;9971;52.446;13.452;2023-03-14T01:04:50;13.10;99.90
19646;DHT22;9971;52.446;13.452;2023-03-14T01:09:53;13.00;99.90
19646;DHT22;9971;52.446;13.452;2023-03-14T01:14:55;13.00;99.90
19646;DHT22;9971;52.446;13.452;2023-03-14T01:19:58;12.90;99.90
19646;DHT22;9971;52.446;13.452;2023-03-14T01:25:00;12.90;99.90
19646;DHT22;9971;52.446;13.452;2023-03-14T01:30:03;12.90;99.90
19646;DHT22;9971;52.446;13.452;2023-03-14T01:35:05;12.90;99.90
19646;DHT22;9971;52.446;13.452;2023-03-14T01:40:09;12.90;99.90
19646;DHT22;9971;52.446;13.452;2023-03-14T01:50:24;13.00;99.90
19646;DHT22;9971;52.446;13.452;2023-03-14T01:55:26;13.00;99.90
19646;DHT22;9971;52.446;13.452;2023-03-14T02:00:29;13.00;99.90
19646;DHT22;9971;52.446;13.452;2023-03-14T02:05:32;12.90;99.90
19646;DHT22;9971;52.446;13.452;2023-03-14T02:10:37;12.90;99.90
19646;DHT22;9971;52.446;13.452;2023-03-14T02:15:37;12.80;99.90
19646;DHT22;9971;52.446;13.452;2023-03-14T02:25:59;12.70;99.90
19646;DHT22;9971;52.446;13.452;2023-03-14T02:31:00;12.70;99.90
19646;DHT22;9971;52.446;13.452;2023-03-14T02:36:02;12.70;99.90
19646;DHT22;9971;52.446;13.452;2023-03-14T02:41:04;12.70;99.90
19646;DHT22;9971;52.446;13.452;2023-03-14T02:46:07;12.60;99.90
19646;DHT22;9971;52.446;13.452;2023-03-14T02:51:08;12.70;99.90
19646;DHT22;9971;52.446;13.452;2023-03-14T02:56:10;12.70;99.90
19646;DHT22;9971;52.446;13.452;2023-03-14T03:01:13;12.70;99.90
19646;DHT22;9971;52.446;13.452;2023-03-14T03:06:15;12.70;99.90
19646;DHT22;9971;52.446;13.452;2023-03-14T03:11:18;12.70;99.90
19646;DHT22;9971;52.446;13.452;2023-03-14T03:16:20;12.60;99.90
19646;DHT22;9971;52.446;13.452;2023-03-14T03:21:22;12.60;99.90
19646;DHT22;9971;52.446;13.452;2023-03-14T03:26:25;12.50;99.90
19646;DHT22;9971;52.446;13.452;2023-03-14T03:31:27;12.60;99.90
19646;DHT22;9971;52.446;13.452;2023-03-14T03:36:29;12.50;99.90
19646;DHT22;9971;52.446;13.452;2023-03-14T03:41:31;12.50;99.90
19646;DHT22;9971;52.446;13.452;2023-03-14T03:46:34;12.50;99.90
19646;DHT22;9971;52.446;13.452;2023-03-14T03:51:36;12.50;99.90
19646;DHT22;9971;52.446;13.452;2023-03-14T03:56:39;12.50;99.90
19646;DHT22;9971;52.446;13.452;2023-03-14T04:01:41;12.50;99.90
19646;DHT22;9971;52.446;13.452;2023-03-14T04:06:43;12.50;99.90
19646;DHT22;9971;52.446;13.452;2023-03-14T04:11:46;12.40;99.90
19646;DHT22;9971;52.446;13.452;2023-03-14T04:16:48;12.40;99.90
19646;DHT22;9971;52.446;13.452;2023-03-14T04:21:51;12.40;99.90
19646;DHT22;9971;52.446;13.452;2023-03-14T04:26:53;12.40;99.90
19646;DHT22;9971;52.446;13.452;2023-03-14T04:31:56;12.30;99.90
19646;DHT22;9971;52.446;13.452;2023-03-14T04:36:58;12.30;99.90
19646;DHT22;9971;52.446;13.452;2023-03-14T04:42:01;12.30;99.90
19646;DHT22;9971;52.446;13.452;2023-03-14T04:47:03;12.30;99.90
19646;DHT22;9971;52.446;13.452;2023-03-14T04:52:06;12.30;99.90
19646;DHT22;9971;52.446;13.452;2023-03-14T04:57:08;12.20;99.90
19646;DHT22;9971;52.446;13.452;2023-03-14T05:02:11;12.20;99.90
19646;DHT22;9971;52.446;13.452;2023-03-14T05:07:13;12.20;99.90
19646;DHT22;9971;52.446;13.452;2023-03-14T05:12:16;12.20;99.90
19646;DHT22;9971;52.446;13.452;2023-03-14T05:17:18;12.10;99.90
19646;DHT22;9971;52.446;13.452;2023-03-14T05:22:20;12.20;99.90
19646;DHT22;9971;52.446;13.452;2023-03-14T05:27:22;12.20;99.90
19646;DHT22;9971;52.446;13.452;2023-03-14T05:32:25;12.20;99.90
19646;DHT22;9971;52.446;13.452;2023-03-14T05:37:28;12.20;99.90
19646;DHT22;9971;52.446;13.452;2023-03-14T05:42:30;12.30;99.90
19646;DHT22;9971;52.446;13.452;2023-03-14T05:47:32;12.30;99.90
19646;DHT22;9971;52.446;13.452;2023-03-14T05:52:34;12.30;99.90
19646;DHT22;9971;52.446;13.452;2023-03-14T05:57:37;12.40;99.90
19646;DHT22;9971;52.446;13.452;2023-03-14T06:02:40;12.40;99.90
19646;DHT22;9971;52.446;13.452;2023-03-14T06:07:42;12.40;99.90
19646;DHT22;9971;52.446;13.452;2023-03-14T06:12:45;12.50;99.90
19646;DHT22;9971;52.446;13.452;2023-03-14T06:17:47;12.50;99.90
19646;DHT22;9971;52.446;13.452;2023-03-14T06:22:50;12.60;99.90
19646;DHT22;9971;52.446;13.452;2023-03-14T06:27:52;12.60;99.90
19646;DHT22;9971;52.446;13.452;2023-03-14T06:32:55;12.70;99.90
19646;DHT22;9971;52.446;13.452;2023-03-14T06:37:57;12.70;99.90
19646;DHT22;9971;52.446;13.452;2023-03-14T06:43:00;12.80;99.90
19646;DHT22;9971;52.446;13.452;2023-03-14T06:48:02;12.80;99.90
19646;DHT22;9971;52.446;13.452;2023-03-14T06:53:05;12.90;99.90
19646;DHT22;9971;52.446;13.452;2023-03-14T06:58:08;13.00;99.90
19646;DHT22;9971;52.446;13.452;2023-03-14T07:03:11;13.00;99.90
19646;DHT22;9971;52.446;13.452;2023-03-14T07:08:14;13.00;99.90
19646;DHT22;9971;52.446;13.452;2023-03-14T07:13:16;13.10;99.90
19646;DHT22;9971;52.446;13.452;2023-03-14T07:18:19;13.20;99.90
19646;DHT22;9971;52.446;13.452;2023-03-14T07:23:21;13.20;99.90
19646;DHT22;9971;52.446;13.452;2023-03-14T07:28:24;13.20;99.90
19646;DHT22;9971;52.446;13.452;2023-03-14T07:33:26;13.20;99.90
19646;DHT22;9971;52.446;13.452;2023-03-14T07:38:28;13.20;99.90
19646;DHT22;9971;52.446;13.452;2023-03-14T07:43:31;13.20;99.90
19646;DHT22;9971;52.446;13.452;2023-03-14T07:48:34;13.20;99.90
19646;DHT22;9971;52.446;13.452;2023-03-14T07:53:36;13.10;99.90
19646;DHT22;9971;52.446;13.452;2023-03-14T07:58:38;13.10;99.90
19646;DHT22;9971;52.446;13.452;2023-03-14T08:03:41;13.20;99.90
19646;DHT22;9971;52.446;13.452;2023-03-14T08:08:43;13.20;99.90
19646;DHT22;9971;52.446;13.452;2023-03-14T08:13:46;13.40;99.90
19646;DHT22;9971;52.446;13.452;2023-03-14T08:18:48;13.50;99.90
19646;DHT22;9971;52.446;13.452;2023-03-14T08:23:50;13.60;99.90
19646;DHT22;9971;52.446;13.452;2023-03-14T08:28:53;13.70;99.90
19646;DHT22;9971;52.446;13.452;2023-03-14T08:33:58;13.80;99.90
19646;DHT22;9971;52.446;13.452;2023-03-14T08:38:58;13.80;99.90
19646;DHT22;9971;52.446;13.452;2023-03-14T08:44:00;13.80;99.90
19646;DHT22;9971;52.446;13.452;2023-03-14T08:49:03;13.80;99.90
19646;DHT22;9971;52.446;13.452;2023-03-14T08:54:05;13.80;99.90
19646;DHT22;9971;52.446;13.452;2023-03-14T08:59:08;13.90;99.90
19646;DHT22;9971;52.446;13.452;2023-03-14T09:04:10;14.00;99.90
19646;DHT22;9971;52.446;13.452;2023-03-14T09:09:12;13.90;99.90
19646;DHT22;9971;52.446;13.452;2023-03-14T09:14:15;14.00;99.90
19646;DHT22;9971;52.446;13.452;2023-03-14T09:19:18;14.10;99.90
19646;DHT22;9971;52.446;13.452;2023-03-14T09:24:20;14.30;99.90
19646;DHT22;9971;52.446;13.452;2023-03-14T09:29:22;14.50;99.90
19646;DHT22;9971;52.446;13.452;2023-03-14T09:34:25;14.70;99.90
19646;DHT22;9971;52.446;13.452;2023-03-14T09:39:27;14.80;99.90
19646;DHT22;9971;52.446;13.452;2023-03-14T09:44:30;14.90;99.90
19646;DHT22;9971;52.446;13.452;2023-03-14T09:49:33;15.10;99.90
19646;DHT22;9971;52.446;13.452;2023-03-14T09:54:39;15.30;99.90
19646;DHT22;9971;52.446;13.452;2023-03-14T09:59:41;15.30;99.90
19646;DHT22;9971;52.446;13.452;2023-03-14T10:04:43;15.10;99.90
19646;DHT22;9971;52.446;13.452;2023-03-14T10:09:47;15.00;99.90
19646;DHT22;9971;52.446;13.452;2023-03-14T10:14:49;15.00;99.90
19646;DHT22;9971;52.446;13.452;2023-03-14T10:19:55;15.00;99.90
19646;DHT22;9971;52.446;13.452;2023-03-14T10:24:57;14.90;99.90
19646;DHT22;9971;52.446;13.452;2023-03-14T10:29:59;14.90;99.90
19646;DHT22;9971;52.446;13.452;2023-03-14T10:35:07;14.80;99.90
19646;DHT22;9971;52.446;13.452;2023-03-14T10:40:12;14.80;99.90
19646;DHT22;9971;52.446;13.452;2023-03-14T10:45:34;14.80;99.90
19646;DHT22;9971;52.446;13.452;2023-03-14T10:50:33;14.80;99.90
19646;DHT22;9971;52.446;13.452;2023-03-14T10:55:41;14.80;99.90
19646;DHT22;9971;52.446;13.452;2023-03-14T11:00:42;14.70;99.90
19646;DHT22;9971;52.446;13.452;2023-03-14T11:05:53;14.70;99.90
19646;DHT22;9971;52.446;13.452;2023-03-14T11:10:57;14.70;99.90
19646;DHT22;9971;52.446;13.452;2023-03-14T11:16:05;14.80;99.90
19646;DHT22;9971;52.446;13.452;2023-03-14T11:21:11;14.80;99.90
19646;DHT22;9971;52.446;13.452;2023-03-14T11:26:44;14.80;99.90
19646;DHT22;9971;52.446;13.452;2023-03-14T11:31:29;15.00;99.90
19646;DHT22;9971;52.446;13.452;2023-03-14T11:36:50;15.00;99.90
19646;DHT22;9971;52.446;13.452;2023-03-14T11:41:51;15.10;99.90
19646;DHT22;9971;52.446;13.452;2023-03-14T11:47:01;15.00;99.90
19646;DHT22;9971;52.446;13.452;2023-03-14T11:52:09;14.90;99.90
19646;DHT22;9971;52.446;13.452;2023-03-14T11:57:14;14.90;99.90
19646;DHT22;9971;52.446;13.452;2023-03-14T12:02:21;14.80;99.90
19646;DHT22;9971;52.446;13.452;2023-03-14T12:07:26;14.60;99.90
19646;DHT22;9971;52.446;13.452;2023-03-14T12:12:25;14.50;99.90
19646;DHT22;9971;52.446;13.452;2023-03-14T12:17:35;14.50;99.90
19646;DHT22;9971;52.446;13.452;2023-03-14T12:22:55;14.50;99.90
19646;DHT22;9971;52.446;13.452;2023-03-14T12:28:16;14.50;99.90
19646;DHT22;9971;52.446;13.452;2023-03-14T12:33:28;14.50;99.90
19646;DHT22;9971;52.446;13.452;2023-03-14T12:39:37;14.60;99.90
19646;DHT22;9971;52.446;13.452;2023-03-14T12:43:47;14.60;99.90
19646;DHT22;9971;52.446;13.452;2023-03-14T12:48:50;14.60;99.90
19646;DHT22;9971;52.446;13.452;2023-03-14T12:54:00;14.50;99.90
19646;DHT22;9971;52.446;13.452;2023-03-14T12:59:04;14.60;99.90
19646;DHT22;9971;52.446;13.452;2023-03-14T13:04:08;14.60;99.90
19646;DHT22;9971;52.446;13.452;2023-03-14T13:09:35;14.60;99.90
19646;DHT22;9971;52.446;13.452;2023-03-14T13:14:36;14.50;99.90
19646;DHT22;9971;52.446;13.452;2023-03-14T13:19:38;14.40;99.90
19646;DHT22;9971;52.446;13.452;2023-03-14T13:24:40;14.30;99.90
19646;DHT22;9971;52.446;13.452;2023-03-14T13:29:43;14.20;99.90
19646;DHT22;9971;52.446;13.452;2023-03-14T13:34:45;14.40;99.90
19646;DHT22;9971;52.446;13.452;2023-03-14T13:39:50;14.80;99.90
19646;DHT22;9971;52.446;13.452;2023-03-14T13:44:53;15.40;99.90
19646;DHT22;9971;52.446;13.452;2023-03-14T13:49:54;15.80;99.90
19646;DHT22;9971;52.446;13.452;2023-03-14T13:54:56;15.90;99.90
19646;DHT22;9971;52.446;13.452;2023-03-14T13:59:59;16.00;99.90
19646;DHT22;9971;52.446;13.452;2023-03-14T14:05:00;15.60;99.90
19646;DHT22;9971;52.446;13.452;2023-03-14T14:10:02;15.40;99.90
19646;DHT22;9971;52.446;13.452;2023-03-14T14:15:09;15.50;99.90
19646;DHT22;9971;52.446;13.452;2023-03-14T14:20:14;15.70;99.90
19646;DHT22;9971;52.446;13.452;2023-03-14T14:25:13;15.80;99.90
19646;DHT22;9971;52.446;13.452;2023-03-14T14:30:32;15.90;99.90
19646;DHT22;9971;52.446;13.452;2023-03-14T14:35:34;15.90;99.90
19646;DHT22;9971;52.446;13.452;2023-03-14T14:40:42;16.10;99.90
19646;DHT22;9971;52.446;13.452;2023-03-14T14:45:39;16.00;99.90
19646;DHT22;9971;52.446;13.452;2023-03-14T14:51:02;15.90;99.90
19646;DHT22;9971;52.446;13.452;2023-03-14T14:56:40;15.80;99.90
19646;DHT22;9971;52.446;13.452;2023-03-14T15:01:25;15.60;99.90
19646;DHT22;9971;52.446;13.452;2023-03-14T15:06:28;15.60;99.90
19646;DHT22;9971;52.446;13.452;2023-03-14T15:11:29;15.40;99.90
19646;DHT22;9971;52.446;13.452;2023-03-14T15:16:31;15.30;99.90
19646;DHT22;9971;52.446;13.452;2023-03-14T15:21:33;15.20;99.90
19646;DHT22;9971;52.446;13.452;2023-03-14T15:26:36;15.00;99.90
19646;DHT22;9971;52.446;13.452;2023-03-14T15:31:38;14.40;99.90
19646;DHT22;9971;52.446;13.452;2023-03-14T15:36:40;12.80;99.90
19646;DHT22;9971;52.446;13.452;2023-03-14T15:41:43;11.60;99.90
19646;DHT22;9971;52.446;13.452;2023-03-14T15:46:45;10.60;99.90
19646;DHT22;9971;52.446;13.452;2023-03-14T15:51:48;9.80;99.90
19646;DHT22;9971;52.446;13.452;2023-03-14T15:56:50;9.40;99.90
19646;DHT22;9971;52.446;13.452;2023-03-14T16:01:53;9.10;99.90
19646;DHT22;9971;52.446;13.452;2023-03-14T16:06:55;8.80;99.90
19646;DHT22;9971;52.446;13.452;2023-03-14T16:11:58;8.50;99.90
19646;DHT22;9971;52.446;13.452;2023-03-14T16:17:00;8.30;99.90
19646;DHT22;9971;52.446;13.452;2023-03-14T16:22:03;7.80;99.90
19646;DHT22;9971;52.446;13.452;2023-03-14T16:27:05;7.30;99.90
19646;DHT22;9971;52.446;13.452;2023-03-14T16:32:08;6.90;99.90
19646;DHT22;9971;52.446;13.452;2023-03-14T16:37:10;6.50;99.90
19646;DHT22;9971;52.446;13.452;2023-03-14T16:42:13;6.10;99.90
19646;DHT22;9971;52.446;13.452;2023-03-14T16:47:16;5.70;99.90
19646;DHT22;9971;52.446;13.452;2023-03-14T16:52:18;5.60;99.90
19646;DHT22;9971;52.446;13.452;2023-03-14T16:57:20;5.50;99.90
19646;DHT22;9971;52.446;13.452;2023-03-14T17:02:23;5.50;99.90
19646;DHT22;9971;52.446;13.452;2023-03-14T17:07:25;5.60;99.90
19646;DHT22;9971;52.446;13.452;2023-03-14T17:12:28;5.50;99.90
19646;DHT22;9971;52.446;13.452;2023-03-14T17:17:30;5.50;99.90
19646;DHT22;9971;52.446;13.452;2023-03-14T17:22:32;5.50;99.90
19646;DHT22;9971;52.446;13.452;2023-03-14T17:27:35;5.60;99.90
19646;DHT22;9971;52.446;13.452;2023-03-14T17:32:37;5.60;99.90
19646;DHT22;9971;52.446;13.452;2023-03-14T17:37:40;5.60;99.90
19646;DHT22;9971;52.446;13.452;2023-03-14T17:42:42;5.70;99.90
19646;DHT22;9971;52.446;13.452;2023-03-14T17:47:45;5.70;99.90
19646;DHT22;9971;52.446;13.452;2023-03-14T17:52:47;5.70;99.90
19646;DHT22;9971;52.446;13.452;2023-03-14T17:57:50;5.80;99.90
19646;DHT22;9971;52.446;13.452;2023-03-14T18:02:53;5.80;99.90
19646;DHT22;9971;52.446;13.452;2023-03-14T18:07:55;5.90;99.90
19646;DHT22;9971;52.446;13.452;2023-03-14T18:12:57;5.90;99.90
19646;DHT22;9971;52.446;13.452;2023-03-14T18:17:59;6.00;99.90
19646;DHT22;9971;52.446;13.452;2023-03-14T18:23:02;6.00;99.90
19646;DHT22;9971;52.446;13.452;2023-03-14T18:28:04;5.90;99.90
19646;DHT22;9971;52.446;13.452;2023-03-14T18:33:06;5.90;99.90
19646;DHT22;9971;52.446;13.452;2023-03-14T18:38:09;5.90;99.90
19646;DHT22;9971;52.446;13.452;2023-03-14T18:43:11;6.00;99.90
19646;DHT22;9971;52.446;13.452;2023-03-14T18:48:14;6.00;99.90
19646;DHT22;9971;52.446;13.452;2023-03-14T18:53:16;6.10;99.90
19646;DHT22;9971;52.446;13.452;2023-03-14T18:58:18;6.10;99.90
19646;DHT22;9971;52.446;13.452;2023-03-14T19:03:20;6.20;99.90
19646;DHT22;9971;52.446;13.452;2023-03-14T19:08:23;6.20;99.90
19646;DHT22;9971;52.446;13.452;2023-03-14T19:13:25;6.20;99.90
19646;DHT22;9971;52.446;13.452;2023-03-14T19:18:27;6.20;99.90
19646;DHT22;9971;52.446;13.452;2023-03-14T19:23:30;6.30;99.90
19646;DHT22;9971;52.446;13.452;2023-03-14T19:28:32;6.30;99.90
19646;DHT22;9971;52.446;13.452;2023-03-14T19:33:34;6.40;99.90
19646;DHT22;9971;52.446;13.452;2023-03-14T19:38:36;6.40;99.90
19646;DHT22;9971;52.446;13.452;2023-03-14T19:43:39;6.40;99.90
19646;DHT22;9971;52.446;13.452;2023-03-14T19:48:41;6.40;99.90
19646;DHT22;9971;52.446;13.452;2023-03-14T19:53:43;6.40;99.90
19646;DHT22;9971;52.446;13.452;2023-03-14T19:58:46;6.50;99.90
19646;DHT22;9971;52.446;13.452;2023-03-14T20:03:48;6.50;99.90
19646;DHT22;9971;52.446;13.452;2023-03-14T20:08:51;6.40;99.90
19646;DHT22;9971;52.446;13.452;2023-03-14T20:13:53;6.40;99.90
19646;DHT22;9971;52.446;13.452;2023-03-14T20:18:56;6.40;99.90
19646;DHT22;9971;52.446;13.452;2023-03-14T20:23:58;6.30;99.90
19646;DHT22;9971;52.446;13.452;2023-03-14T20:29:00;6.30;99.90
19646;DHT22;9971;52.446;13.452;2023-03-14T20:34:03;6.20;99.90
19646;DHT22;9971;52.446;13.452;2023-03-14T20:39:04;6.20;99.90
19646;DHT22;9971;52.446;13.452;2023-03-14T20:44:07;6.20;99.90
19646;DHT22;9971;52.446;13.452;2023-03-14T20:49:09;6.10;99.90
19646;DHT22;9971;52.446;13.452;2023-03-14T20:54:11;6.10;99.90
19646;DHT22;9971;52.446;13.452;2023-03-14T20:59:14;6.10;99.90
19646;DHT22;9971;52.446;13.452;2023-03-14T21:04:17;6.00;99.90
19646;DHT22;9971;52.446;13.452;2023-03-14T21:09:20;6.00;99.90
19646;DHT22;9971;52.446;13.452;2023-03-14T21:14:21;6.00;99.90
19646;DHT22;9971;52.446;13.452;2023-03-14T21:19:23;6.00;99.90
19646;DHT22;9971;52.446;13.452;2023-03-14T21:24:26;6.00;99.90
19646;DHT22;9971;52.446;13.452;2023-03-14T21:29:28;6.00;99.90
19646;DHT22;9971;52.446;13.452;2023-03-14T21:34:31;6.00;99.90
19646;DHT22;9971;52.446;13.452;2023-03-14T21:39:33;5.90;99.90
19646;DHT22;9971;52.446;13.452;2023-03-14T21:44:36;5.80;99.90
19646;DHT22;9971;52.446;13.452;2023-03-14T21:49:38;5.80;99.90
19646;DHT22;9971;52.446;13.452;2023-03-14T21:54:40;5.80;99.90
19646;DHT22;9971;52.446;13.452;2023-03-14T21:59:43;5.80;99.90
19646;DHT22;9971;52.446;13.452;2023-03-14T22:04:45;5.70;99.90
19646;DHT22;9971;52.446;13.452;2023-03-14T22:09:48;5.70;99.90
19646;DHT22;9971;52.446;13.452;2023-03-14T22:14:51;5.70;99.90
19646;DHT22;9971;52.446;13.452;2023-03-14T22:19:53;5.70;99.90
19646;DHT22;9971;52.446;13.452;2023-03-14T22:24:55;5.70;99.90
19646;DHT22;9971;52.446;13.452;2023-03-14T22:29:57;5.60;99.90
19646;DHT22;9971;52.446;13.452;2023-03-14T22:35:00;5.60;99.90
19646;DHT22;9971;52.446;13.452;2023-03-14T22:40:02;5.60;99.90
19646;DHT22;9971;52.446;13.452;2023-03-14T22:45:05;5.70;99.90
19646;DHT22;9971;52.446;13.452;2023-03-14T22:50:08;5.60;99.90
19646;DHT22;9971;52.446;13.452;2023-03-14T22:55:11;5.70;99.90
19646;DHT22;9971;52.446;13.452;2023-03-14T23:00:13;5.70;99.90
19646;DHT22;9971;52.446;13.452;2023-03-14T23:05:16;5.60;99.90
19646;DHT22;9971;52.446;13.452;2023-03-14T23:10:18;5.60;99.90
19646;DHT22;9971;52.446;13.452;2023-03-14T23:15:21;5.50;99.90
19646;DHT22;9971;52.446;13.452;2023-03-14T23:20:23;5.50;99.90
19646;DHT22;9971;52.446;13.452;2023-03-14T23:25:25;5.50;99.90
19646;DHT22;9971;52.446;13.452;2023-03-14T23:30:27;5.40;99.90
19646;DHT22;9971;52.446;13.452;2023-03-14T23:35:30;5.40;99.90
19646;DHT22;9971;52.446;13.452;2023-03-14T23:40:32;5.40;99.90
19646;DHT22;9971;52.446;13.452;2023-03-14T23:45:35;5.40;99.90
19646;DHT22;9971;52.446;13.452;2023-03-14T23:50:37;5.30;99.90
19646;DHT22;9971;52.446;13.452;2023-03-14T23:55:40;5.30;99.90
